Time;durP1;ratioP1;P1;durP2;ratioP2;P2;SDS_P1;SDS_P2;PMS_P1;PMS_P2;Temp;Humidity;BMP_temperature;BMP_pressure;BME280_temperature;BME280_humidity;BME280_pressure;Samples;Min_cycle;Max_cycle;Signal;HPM_P1;HPM_P2
2023/03/02 00:01:37;;;;;;;28.07;13.53;;;1.60;99.90;;;;;;4991429;28;20428;-64
2023/03/02 00:04:06;;;;;;;19.23;13.87;;;1.60;99.90;;;;;;4991719;28;20465;-63
2023/03/02 00:06:34;;;;;;;21.27;13.73;;;1.50;99.90;;;;;;4992033;28;20415;-64
2023/03/02 00:09:01;;;;;;;19.40;14.10;;;1.40;99.90;;;;;;4987731;28;20440;-63
2023/03/02 00:11:30;;;;;;;20.83;13.77;;;1.40;99.90;;;;;;4989994;28;20424;-64
2023/03/02 00:13:56;;;;;;;22.27;12.80;;;1.40;99.90;;;;;;4991700;28;20867;-62
2023/03/02 00:16:22;;;;;;;18.90;14.10;;;1.40;99.90;;;;;;4981453;28;20412;-63
2023/03/02 00:18:48;;;;;;;20.60;13.77;;;1.30;99.90;;;;;;4992005;28;20809;-63
2023/03/02 00:21:13;;;;;;;23.30;14.90;;;1.30;99.90;;;;;;4991552;28;20435;-63
2023/03/02 00:23:39;;;;;;;25.87;16.27;;;1.30;99.90;;;;;;4991858;28;20529;-62
2023/03/02 00:26:05;;;;;;;22.20;13.67;;;1.30;99.90;;;;;;4991759;28;20417;-62
2023/03/02 00:28:32;;;;;;;23.17;14.40;;;1.30;99.90;;;;;;4987797;28;20243;-64
2023/03/02 00:30:58;;;;;;;27.90;16.27;;;1.20;99.90;;;;;;4991755;28;20185;-63
2023/03/02 00:33:23;;;;;;;20.87;15.70;;;1.10;99.90;;;;;;4991782;28;20948;-66
2023/03/02 00:35:49;;;;;;;22.77;15.20;;;1.10;99.90;;;;;;4991662;28;20184;-65
2023/03/02 00:38:15;;;;;;;25.33;15.80;;;1.00;99.90;;;;;;4991158;28;20272;-62
2023/03/02 00:40:46;;;;;;;16.73;13.07;;;1.00;99.90;;;;;;4991540;28;20561;-63
2023/03/02 00:43:12;;;;;;;20.00;15.60;;;1.00;99.90;;;;;;4991405;28;20197;-62
2023/03/02 00:45:37;;;;;;;19.67;13.27;;;1.00;99.90;;;;;;4991768;28;20408;-64
2023/03/02 00:48:03;;;;;;;19.73;13.03;;;1.00;99.90;;;;;;4991262;28;20462;-63
2023/03/02 00:50:29;;;;;;;24.23;14.13;;;1.00;99.90;;;;;;4991167;28;20646;-64
2023/03/02 00:52:55;;;;;;;19.63;12.93;;;1.10;99.90;;;;;;4991443;28;20165;-64
2023/03/02 00:55:20;;;;;;;20.07;14.60;;;1.00;99.90;;;;;;4990820;28;20238;-64
2023/03/02 00:57:53;;;;;;;17.13;13.17;;;1.10;99.90;;;;;;4991136;28;20191;-64
2023/03/02 01:00:21;;;;;;;14.83;11.80;;;1.00;99.90;;;;;;4990899;28;20201;-65
2023/03/02 01:02:47;;;;;;;21.80;11.57;;;1.00;99.90;;;;;;4991183;28;20404;-63
2023/03/02 01:05:14;;;;;;;18.03;11.77;;;1.00;99.90;;;;;;4990524;28;20911;-63
2023/03/02 01:07:39;;;;;;;19.40;13.00;;;1.00;99.90;;;;;;4990714;28;20408;-64
2023/03/02 01:10:05;;;;;;;22.10;11.83;;;0.90;99.90;;;;;;4973350;28;21028;-64
2023/03/02 01:12:31;;;;;;;18.10;12.57;;;0.90;99.90;;;;;;4990477;28;20256;-64
2023/03/02 01:14:57;;;;;;;16.70;11.83;;;0.90;99.90;;;;;;4990914;28;20404;-63
2023/03/02 01:17:24;;;;;;;18.80;11.10;;;0.90;99.90;;;;;;4990746;28;20939;-63
2023/03/02 01:19:50;;;;;;;15.20;11.20;;;0.80;99.90;;;;;;4990628;28;20411;-63
2023/03/02 01:22:17;;;;;;;17.97;11.10;;;1.00;99.90;;;;;;4990380;28;20468;-63
2023/03/02 01:24:43;;;;;;;18.30;12.80;;;1.00;99.90;;;;;;4990684;28;20782;-62
2023/03/02 01:27:09;;;;;;;19.73;11.07;;;1.00;99.90;;;;;;4989574;28;20419;-63
2023/03/02 01:29:35;;;;;;;16.13;10.13;;;1.00;99.90;;;;;;4990277;28;20248;-64
2023/03/02 01:32:00;;;;;;;13.43;10.10;;;0.90;99.90;;;;;;4990249;28;20189;-64
2023/03/02 01:34:26;;;;;;;18.13;11.40;;;0.90;99.90;;;;;;4990113;28;20489;-64
2023/03/02 01:36:52;;;;;;;17.50;9.73;;;0.90;99.90;;;;;;4990164;28;20227;-63
2023/03/02 01:39:21;;;;;;;16.90;9.80;;;0.90;99.90;;;;;;4990255;28;20494;-63
2023/03/02 01:45:42;;;;;;;12.30;9.67;;;0.90;99.90;;;;;;4976393;28;20475;-63
2023/03/02 01:48:11;;;;;;;14.27;9.00;;;0.90;99.90;;;;;;4973469;28;21137;-63
2023/03/02 01:50:37;;;;;;;18.17;9.97;;;0.80;99.90;;;;;;4976812;28;20456;-64
2023/03/02 01:53:02;;;;;;;15.90;11.03;;;0.70;99.90;;;;;;4974197;28;20928;-64
2023/03/02 01:55:31;;;;;;;16.20;10.03;;;0.80;99.90;;;;;;4973020;28;20538;-62
2023/03/02 01:57:59;;;;;;;18.33;10.60;;;0.80;99.90;;;;;;4973389;28;20172;-62
2023/03/02 02:00:30;;;;;;;13.90;10.00;;;0.70;99.90;;;;;;4974788;28;20620;-64
2023/03/02 02:03:07;;;;;;;16.10;10.07;;;0.70;99.90;;;;;;4973824;28;20523;-64
2023/03/02 02:05:36;;;;;;;12.17;10.07;;;0.70;99.90;;;;;;4975558;28;20477;-64
2023/03/02 02:08:01;;;;;;;13.87;9.57;;;0.70;99.90;;;;;;4972080;28;20448;-64
2023/03/02 02:10:28;;;;;;;18.17;12.07;;;0.60;99.90;;;;;;4976565;28;20471;-64
2023/03/02 02:12:54;;;;;;;15.53;9.27;;;0.60;99.90;;;;;;4974804;28;20447;-64
2023/03/02 02:15:19;;;;;;;17.00;10.63;;;0.60;99.90;;;;;;4978068;28;20436;-64
2023/03/02 02:17:45;;;;;;;17.03;8.93;;;0.50;99.90;;;;;;4977693;28;20269;-64
2023/03/02 02:20:33;;;;;;;14.63;9.23;;;0.50;99.90;;;;;;4971726;28;20173;-64
2023/03/02 02:23:11;;;;;;;13.47;9.03;;;0.50;99.90;;;;;;4975910;28;20524;-64
2023/03/02 02:25:48;;;;;;;11.30;8.80;;;0.50;99.90;;;;;;4976033;28;20435;-63
2023/03/02 02:28:22;;;;;;;20.13;12.70;;;0.50;99.90;;;;;;4971755;28;20894;-62
2023/03/02 02:30:55;;;;;;;12.13;8.80;;;0.60;99.90;;;;;;4975357;28;20441;-63
2023/03/02 02:33:23;;;;;;;17.73;9.53;;;0.60;99.90;;;;;;4976937;28;20429;-61
2023/03/02 02:35:53;;;;;;;12.43;9.20;;;0.60;99.90;;;;;;4976175;28;20473;-63
2023/03/02 02:38:21;;;;;;;14.97;9.10;;;0.50;99.90;;;;;;4975237;28;20433;-63
2023/03/02 02:40:52;;;;;;;17.47;10.07;;;0.50;99.90;;;;;;4975154;28;20457;-63
2023/03/02 02:43:19;;;;;;;13.70;10.43;;;0.50;99.90;;;;;;4979479;28;20428;-62
2023/03/02 02:45:46;;;;;;;12.37;10.17;;;0.40;99.90;;;;;;4977187;28;20491;-63
2023/03/02 02:48:18;;;;;;;14.27;10.60;;;0.30;99.90;;;;;;4978382;28;20442;-64
2023/03/02 02:50:45;;;;;;;14.50;10.13;;;0.30;99.90;;;;;;4977461;28;20475;-62
2023/03/02 02:53:18;;;;;;;20.73;11.90;;;0.20;99.90;;;;;;4976006;28;20499;-64
2023/03/02 02:55:46;;;;;;;15.50;9.87;;;0.20;99.90;;;;;;4977949;28;20428;-62
2023/03/02 02:58:40;;;;;;;13.73;11.23;;;0.20;99.90;;;;;;4980021;28;20952;-64
2023/03/02 03:01:06;;;;;;;13.70;10.70;;;0.10;99.90;;;;;;4980482;28;20838;-62
2023/03/02 03:03:35;;;;;;;21.13;10.90;;;0.10;99.90;;;;;;4978495;28;20516;-62
2023/03/02 03:06:04;;;;;;;14.50;9.33;;;0.10;99.90;;;;;;4978505;28;20435;-63
2023/03/02 03:08:45;;;;;;;18.97;11.03;;;0.10;99.90;;;;;;4978355;28;20433;-63
2023/03/02 03:11:14;;;;;;;17.57;10.47;;;0.10;99.90;;;;;;4977353;28;20858;-63
2023/03/02 03:13:41;;;;;;;16.90;12.07;;;0.10;99.90;;;;;;4976758;28;20523;-63
2023/03/02 03:16:11;;;;;;;18.40;11.00;;;0.00;99.90;;;;;;4974956;28;20439;-62
2023/03/02 03:18:37;;;;;;;13.23;10.97;;;0.00;99.90;;;;;;4977314;28;20526;-62
2023/03/02 03:21:03;;;;;;;20.17;11.87;;;0.00;99.90;;;;;;4976229;28;20460;-62
2023/03/02 03:23:29;;;;;;;16.17;12.17;;;0.00;99.90;;;;;;4980320;28;20452;-63
2023/03/02 03:25:54;;;;;;;19.20;10.27;;;0.00;99.90;;;;;;4978616;28;20508;-64
2023/03/02 03:28:20;;;;;;;23.87;12.33;;;0.00;99.90;;;;;;4974148;28;20260;-64
2023/03/02 03:30:45;;;;;;;13.33;9.33;;;0.00;99.90;;;;;;4976377;28;20465;-63
2023/03/02 03:33:11;;;;;;;21.57;11.40;;;-0.10;99.90;;;;;;4978280;28;20169;-64
2023/03/02 03:35:37;;;;;;;18.60;12.70;;;-0.20;99.90;;;;;;4977604;28;20182;-62
2023/03/02 03:38:04;;;;;;;13.73;10.70;;;-0.20;99.90;;;;;;4978039;28;27725;-61
2023/03/02 03:40:33;;;;;;;14.13;11.47;;;-0.10;99.90;;;;;;4974814;28;20536;-63
2023/03/02 03:42:59;;;;;;;17.40;11.70;;;-0.10;99.90;;;;;;4977593;28;20439;-63
2023/03/02 03:45:25;;;;;;;20.53;11.90;;;-0.10;99.90;;;;;;4978501;28;20459;-63
2023/03/02 03:47:51;;;;;;;17.10;10.90;;;-0.20;99.90;;;;;;4980510;28;20802;-64
2023/03/02 03:50:16;;;;;;;19.23;14.10;;;-0.20;99.90;;;;;;4975159;28;20437;-63
2023/03/02 03:52:42;;;;;;;23.00;11.53;;;-0.20;99.90;;;;;;4974403;28;20178;-60
2023/03/02 03:55:08;;;;;;;22.43;11.33;;;-0.20;99.90;;;;;;4979145;28;20177;-63
2023/03/02 03:57:34;;;;;;;16.10;9.10;;;-0.20;99.90;;;;;;4975680;28;20656;-63
2023/03/02 04:00:00;;;;;;;22.90;11.47;;;-0.20;99.90;;;;;;4976771;28;20452;-63
2023/03/02 04:02:25;;;;;;;19.87;12.70;;;-0.30;99.90;;;;;;4979872;28;20233;-64
2023/03/02 04:04:51;;;;;;;16.93;12.00;;;-0.30;99.90;;;;;;4976092;28;20281;-63
2023/03/02 04:07:17;;;;;;;22.87;10.80;;;-0.30;99.90;;;;;;4978326;28;20183;-64
2023/03/02 04:09:43;;;;;;;12.50;9.20;;;-0.30;99.90;;;;;;4979999;28;20173;-61
2023/03/02 04:12:09;;;;;;;14.00;9.90;;;-0.40;99.90;;;;;;4976307;28;20220;-63
2023/03/02 04:14:35;;;;;;;19.53;9.87;;;-0.40;99.90;;;;;;4977453;28;20843;-59
2023/03/02 04:17:04;;;;;;;19.23;10.27;;;-0.40;99.90;;;;;;4978976;28;20443;-59
2023/03/02 04:19:29;;;;;;;17.07;10.57;;;-0.50;99.90;;;;;;4978193;28;20261;-61
2023/03/02 04:21:57;;;;;;;19.43;11.03;;;-0.60;99.90;;;;;;4973906;28;20547;-60
2023/03/02 04:24:23;;;;;;;12.70;9.43;;;-0.60;99.90;;;;;;4976903;28;20466;-63
2023/03/02 04:26:49;;;;;;;13.83;10.03;;;-0.60;99.90;;;;;;4977440;28;20424;-62
2023/03/02 04:29:15;;;;;;;14.67;8.80;;;-0.70;99.90;;;;;;4978882;28;20440;-63
2023/03/02 04:31:41;;;;;;;14.13;10.13;;;-0.70;99.90;;;;;;4978539;28;20448;-61
2023/03/02 04:34:07;;;;;;;16.27;9.63;;;-0.70;99.90;;;;;;4976968;28;20439;-61
2023/03/02 04:36:36;;;;;;;16.10;10.77;;;-0.70;99.90;;;;;;4980562;28;20265;-60
2023/03/02 04:39:03;;;;;;;13.63;9.63;;;-0.70;99.90;;;;;;4977054;28;20436;-61
2023/03/02 04:41:28;;;;;;;14.80;9.90;;;-0.70;99.90;;;;;;4977579;28;20832;-58
2023/03/02 04:43:54;;;;;;;15.63;11.03;;;-0.70;99.90;;;;;;4955159;28;20465;-59
2023/03/02 04:46:23;;;;;;;13.40;9.00;;;-0.70;99.90;;;;;;4980193;28;20204;-61
2023/03/02 04:48:49;;;;;;;16.50;10.60;;;-0.70;99.90;;;;;;4977922;28;20351;-62
2023/03/02 04:51:26;;;;;;;15.77;11.10;;;-0.70;99.90;;;;;;4976009;28;20503;-60
2023/03/02 04:53:54;;;;;;;17.60;10.57;;;-0.70;99.90;;;;;;4977024;28;20196;-58
2023/03/02 04:56:20;;;;;;;19.17;13.20;;;-0.70;99.90;;;;;;4976149;28;20430;-62
2023/03/02 04:58:46;;;;;;;16.87;11.03;;;-0.70;99.90;;;;;;4978171;28;20785;-61
2023/03/02 05:01:14;;;;;;;17.13;11.77;;;-0.70;99.90;;;;;;5010257;23;20482;-72
2023/03/02 05:03:40;;;;;;;16.00;11.00;;;-0.80;99.90;;;;;;4993833;28;20655;-70
2023/03/02 05:06:05;;;;;;;18.73;11.10;;;-0.70;99.90;;;;;;4995483;28;20521;-69
2023/03/02 05:08:31;;;;;;;17.60;10.87;;;-0.70;99.90;;;;;;4994495;28;20423;-69
2023/03/02 05:10:57;;;;;;;15.80;11.00;;;-0.70;99.90;;;;;;5000280;28;20284;-69
2023/03/02 05:13:24;;;;;;;17.13;10.57;;;-0.70;99.90;;;;;;4981082;28;20180;-69
2023/03/02 05:15:50;;;;;;;26.70;13.20;;;-0.70;99.90;;;;;;4993895;28;20177;-70
2023/03/02 05:18:17;;;;;;;21.07;13.03;;;-0.70;99.90;;;;;;4993128;28;20530;-69
2023/03/02 05:20:43;;;;;;;21.10;12.80;;;-0.70;99.90;;;;;;4995471;28;20825;-68
2023/03/02 05:23:10;;;;;;;18.20;12.97;;;-0.70;99.90;;;;;;4992179;28;20420;-70
2023/03/02 05:25:36;;;;;;;21.67;12.13;;;-0.70;99.90;;;;;;4991376;28;20208;-70
2023/03/02 05:28:04;;;;;;;23.80;14.73;;;-0.70;99.90;;;;;;4994093;28;20926;-69
2023/03/02 05:30:31;;;;;;;22.03;13.80;;;-0.60;99.90;;;;;;4991330;28;20509;-70
2023/03/02 05:32:57;;;;;;;22.97;13.47;;;-0.60;99.90;;;;;;4999941;28;20521;-71
2023/03/02 05:35:23;;;;;;;27.47;16.77;;;-0.70;99.90;;;;;;4991470;28;20431;-71
2023/03/02 05:37:50;;;;;;;19.33;11.90;;;-0.70;99.90;;;;;;4991650;28;20424;-69
2023/03/02 05:40:19;;;;;;;28.07;14.10;;;-0.70;99.90;;;;;;4996618;28;20535;-69
2023/03/02 05:42:45;;;;;;;22.13;14.27;;;-0.80;99.90;;;;;;4992628;28;20427;-71
2023/03/02 05:45:30;;;;;;;24.10;13.10;;;-0.80;99.90;;;;;;4999469;28;20455;-70
2023/03/02 05:47:56;;;;;;;19.73;12.60;;;-0.80;99.90;;;;;;4996118;28;20985;-70
2023/03/02 05:50:22;;;;;;;21.93;14.70;;;-0.80;99.90;;;;;;4990734;28;20476;-69
2023/03/02 05:52:48;;;;;;;21.10;12.70;;;-0.90;99.90;;;;;;4995967;28;20440;-68
2023/03/02 05:55:15;;;;;;;22.73;13.90;;;-0.90;99.90;;;;;;4995371;28;20173;-69
2023/03/02 05:57:41;;;;;;;17.87;11.23;;;-0.90;99.90;;;;;;4993995;28;20803;-69
2023/03/02 06:00:08;;;;;;;21.27;13.37;;;-1.00;99.90;;;;;;4998423;28;20459;-71
2023/03/02 06:02:34;;;;;;;23.00;12.87;;;-1.00;99.90;;;;;;4998616;28;20193;-70
2023/03/02 06:05:00;;;;;;;28.83;15.90;;;-1.00;99.90;;;;;;5001880;28;20447;-69
2023/03/02 06:07:26;;;;;;;31.33;15.70;;;-1.10;99.90;;;;;;5007421;28;20231;-71
2023/03/02 06:09:51;;;;;;;29.60;15.60;;;-1.10;99.90;;;;;;4996798;28;20181;-70
2023/03/02 06:12:17;;;;;;;24.17;13.87;;;-1.10;99.90;;;;;;5004248;28;20443;-69
2023/03/02 06:14:43;;;;;;;28.60;14.30;;;-1.10;99.90;;;;;;5007039;28;20244;-70
2023/03/02 06:17:09;;;;;;;26.50;15.10;;;-1.10;99.90;;;;;;5005162;28;20435;-69
2023/03/02 06:19:35;;;;;;;24.53;13.87;;;-1.10;99.90;;;;;;4995895;28;20184;-69
2023/03/02 06:22:01;;;;;;;28.90;14.40;;;-1.10;99.90;;;;;;4989725;28;20459;-68
2023/03/02 06:24:26;;;;;;;23.83;13.30;;;-1.00;99.90;;;;;;4996610;28;20596;-69
2023/03/02 06:26:53;;;;;;;19.53;13.97;;;-1.10;99.90;;;;;;4993737;28;20219;-69
2023/03/02 06:29:20;;;;;;;27.97;11.77;;;-1.10;99.90;;;;;;4996042;28;20428;-69
2023/03/02 06:31:46;;;;;;;28.83;15.33;;;-1.20;99.90;;;;;;4992802;28;20910;-69
2023/03/02 06:34:11;;;;;;;29.00;12.97;;;-1.10;99.90;;;;;;4992722;28;20431;-69
2023/03/02 06:36:37;;;;;;;35.13;15.13;;;-1.10;99.90;;;;;;4989576;28;20185;-71
2023/03/02 06:39:04;;;;;;;24.80;13.30;;;-1.20;99.90;;;;;;4991555;28;20655;-70
2023/03/02 06:41:32;;;;;;;22.80;14.87;;;-1.10;99.90;;;;;;4988833;28;20331;-68
2023/03/02 06:44:00;;;;;;;26.70;15.03;;;-1.10;99.90;;;;;;4994005;28;20467;-69
2023/03/02 06:46:26;;;;;;;27.80;13.10;;;-1.10;99.90;;;;;;4992198;28;20518;-69
2023/03/02 06:48:51;;;;;;;40.47;13.90;;;-1.20;99.90;;;;;;4989384;28;20542;-70
2023/03/02 06:51:18;;;;;;;23.40;11.50;;;-1.20;99.90;;;;;;4991581;28;20562;-69
2023/03/02 06:53:43;;;;;;;17.57;11.00;;;-1.20;99.90;;;;;;4994169;28;20184;-69
2023/03/02 06:56:09;;;;;;;25.10;12.90;;;-1.10;99.90;;;;;;4993183;28;20446;-70
2023/03/02 06:58:35;;;;;;;23.73;12.40;;;-1.10;99.90;;;;;;4992113;28;20185;-72
2023/03/02 07:01:02;;;;;;;28.67;12.23;;;-1.10;99.90;;;;;;4990097;28;20505;-71
2023/03/02 07:03:27;;;;;;;29.50;14.10;;;-1.20;99.90;;;;;;4991351;28;20442;-69
2023/03/02 07:05:53;;;;;;;24.13;12.97;;;-1.20;99.90;;;;;;4993222;28;20424;-74
2023/03/02 07:08:19;;;;;;;23.00;9.93;;;-1.10;99.90;;;;;;4997627;28;20272;-70
2023/03/02 07:10:44;;;;;;;23.60;13.30;;;-1.10;99.90;;;;;;4992422;28;20204;-69
2023/03/02 07:13:10;;;;;;;19.47;11.17;;;-1.20;99.90;;;;;;4996733;28;20283;-69
2023/03/02 07:15:38;;;;;;;21.93;10.90;;;-1.00;99.90;;;;;;4989118;28;20197;-69
2023/03/02 07:18:04;;;;;;;19.93;11.77;;;-1.00;99.90;;;;;;4989930;28;20183;-70
2023/03/02 07:20:29;;;;;;;23.50;12.30;;;-0.90;99.90;;;;;;4990524;28;20534;-69
2023/03/02 07:22:56;;;;;;;18.67;12.73;;;-0.80;99.90;;;;;;4992122;28;20284;-69
2023/03/02 07:25:21;;;;;;;21.53;10.87;;;-0.70;99.90;;;;;;4990597;28;20199;-69
2023/03/02 07:27:47;;;;;;;25.03;12.33;;;-0.70;99.90;;;;;;4994103;28;20440;-69
2023/03/02 07:30:14;;;;;;;21.73;12.20;;;-0.60;99.90;;;;;;4994505;28;20204;-69
2023/03/02 07:32:40;;;;;;;21.90;13.40;;;-0.60;99.90;;;;;;4994586;28;20180;-69
2023/03/02 07:35:06;;;;;;;21.70;12.03;;;-0.70;99.90;;;;;;4993205;28;20471;-68
2023/03/02 07:37:32;;;;;;;26.90;10.77;;;-0.60;99.90;;;;;;4995626;28;20431;-69
2023/03/02 07:39:57;;;;;;;20.57;10.57;;;-0.50;99.90;;;;;;5005469;28;20833;-68
2023/03/02 07:42:23;;;;;;;49.17;14.63;;;-0.50;99.90;;;;;;5013398;28;20183;-67
2023/03/02 07:44:52;;;;;;;34.33;13.67;;;-0.30;99.90;;;;;;5013151;28;20545;-70
2023/03/02 07:47:18;;;;;;;23.50;13.93;;;-0.30;99.90;;;;;;5014413;28;20180;-68
2023/03/02 07:49:43;;;;;;;32.43;10.80;;;-0.20;99.90;;;;;;5014064;28;20423;-67
2023/03/02 07:52:09;;;;;;;28.50;11.73;;;-0.20;99.90;;;;;;5014606;28;20176;-69
2023/03/02 07:54:35;;;;;;;36.07;14.40;;;-0.10;99.90;;;;;;5015944;28;20283;-69
2023/03/02 07:57:01;;;;;;;25.73;13.77;;;-0.10;99.90;;;;;;5010922;28;20200;-69
2023/03/02 07:59:27;;;;;;;29.37;12.27;;;-0.10;99.90;;;;;;5014792;28;20917;-69
2023/03/02 08:01:53;;;;;;;26.60;12.50;;;-0.10;99.90;;;;;;5021110;28;20294;-70
2023/03/02 08:04:19;;;;;;;30.13;12.47;;;-0.10;99.90;;;;;;5015370;28;20511;-69
2023/03/02 08:06:44;;;;;;;28.97;14.53;;;-0.20;99.90;;;;;;5016163;28;20421;-67
2023/03/02 08:09:10;;;;;;;24.27;12.77;;;0.00;99.90;;;;;;5017018;28;20210;-68
2023/03/02 08:11:35;;;;;;;28.53;13.57;;;0.00;99.90;;;;;;5014169;28;20569;-70
2023/03/02 08:14:02;;;;;;;26.57;13.07;;;0.20;99.90;;;;;;5004925;28;20231;-69
2023/03/02 08:16:28;;;;;;;33.97;16.60;;;0.30;99.90;;;;;;5013942;28;20175;-68
2023/03/02 08:18:55;;;;;;;32.97;16.00;;;0.50;99.90;;;;;;5013583;28;20772;-68
2023/03/02 08:21:22;;;;;;;31.00;16.90;;;0.40;99.90;;;;;;5013977;28;20427;-69
2023/03/02 08:23:49;;;;;;;27.40;16.30;;;0.50;99.90;;;;;;5015541;28;20420;-68
2023/03/02 08:26:16;;;;;;;27.30;16.27;;;0.60;99.90;;;;;;5015122;28;20474;-68
2023/03/02 08:28:41;;;;;;;22.33;12.90;;;0.70;99.90;;;;;;5013600;28;20407;-69
2023/03/02 08:31:08;;;;;;;35.93;15.40;;;0.70;99.90;;;;;;5016451;28;20442;-68
2023/03/02 08:33:35;;;;;;;32.27;14.40;;;0.50;99.90;;;;;;5013653;28;20609;-70
2023/03/02 08:36:07;;;;;;;25.27;14.00;;;0.50;99.90;;;;;;5017374;28;20410;-68
2023/03/02 08:38:34;;;;;;;27.80;15.53;;;0.60;99.90;;;;;;5006163;28;20431;-69
2023/03/02 08:41:03;;;;;;;27.33;14.77;;;0.70;99.90;;;;;;5000612;28;20484;-70
2023/03/02 08:43:29;;;;;;;30.33;13.70;;;0.70;99.90;;;;;;5005700;28;20415;-68
2023/03/02 08:45:56;;;;;;;26.67;15.33;;;0.90;99.90;;;;;;5015136;28;20498;-68
2023/03/02 08:48:23;;;;;;;29.97;13.93;;;0.90;99.90;;;;;;5014252;28;20176;-68
2023/03/02 08:51:03;;;;;;;25.60;14.70;;;1.00;99.90;;;;;;5013507;28;20423;-67
2023/03/02 08:53:33;;;;;;;28.13;14.50;;;1.20;99.90;;;;;;5005181;28;20770;-69
2023/03/02 08:55:58;;;;;;;27.50;13.80;;;1.20;99.90;;;;;;5012801;28;20773;-69
2023/03/02 08:58:24;;;;;;;24.60;12.80;;;1.20;99.90;;;;;;5019898;28;20423;-67
2023/03/02 09:00:50;;;;;;;28.53;15.40;;;1.40;99.90;;;;;;5020177;28;20211;-68
2023/03/02 09:03:16;;;;;;;28.73;14.03;;;1.30;99.90;;;;;;5014046;28;20936;-68
2023/03/02 09:05:42;;;;;;;29.63;16.90;;;1.30;99.90;;;;;;5019133;28;20414;-68
2023/03/02 09:08:08;;;;;;;28.97;14.60;;;1.50;99.90;;;;;;5023234;28;20646;-68
2023/03/02 09:10:34;;;;;;;26.20;14.70;;;1.60;99.90;;;;;;5013598;28;20439;-69
2023/03/02 09:12:59;;;;;;;22.40;14.30;;;1.40;99.90;;;;;;5015942;28;20418;-69
2023/03/02 09:15:25;;;;;;;24.37;15.70;;;1.10;99.90;;;;;;5017944;28;20458;-68
2023/03/02 09:17:51;;;;;;;26.00;14.43;;;1.40;99.90;;;;;;4997439;28;20510;-67
2023/03/02 09:20:16;;;;;;;27.00;14.80;;;1.60;99.90;;;;;;5012648;28;20355;-68
2023/03/02 09:22:47;;;;;;;22.60;14.37;;;1.70;99.90;;;;;;5014127;28;20164;-70
2023/03/02 09:25:13;;;;;;;25.00;14.77;;;1.70;99.90;;;;;;5012755;28;20180;-68
2023/03/02 09:27:39;;;;;;;22.90;14.97;;;2.00;99.90;;;;;;5012601;28;20588;-67
2023/03/02 09:30:07;;;;;;;24.70;13.20;;;1.60;99.90;;;;;;5012476;28;21122;-69
2023/03/02 09:32:32;;;;;;;23.63;14.60;;;1.70;99.90;;;;;;5021156;28;20521;-67
2023/03/02 09:34:58;;;;;;;20.40;13.10;;;1.70;99.90;;;;;;5015990;28;20466;-68
2023/03/02 09:37:23;;;;;;;18.97;11.70;;;1.70;99.90;;;;;;5016651;28;20200;-69
2023/03/02 09:39:49;;;;;;;28.00;15.10;;;1.70;99.90;;;;;;5012208;28;20521;-68
2023/03/02 09:42:49;;;;;;;23.57;13.73;;;1.80;99.90;;;;;;5012152;28;20173;-68
2023/03/02 09:45:15;;;;;;;22.03;12.40;;;1.70;99.90;;;;;;5007569;28;20188;-67
2023/03/02 09:48:08;;;;;;;24.07;13.47;;;1.60;99.90;;;;;;5010708;28;20400;-67
2023/03/02 09:50:38;;;;;;;20.43;12.27;;;1.50;99.90;;;;;;5012213;28;20675;-69
2023/03/02 09:53:27;;;;;;;20.33;12.00;;;1.60;99.90;;;;;;5011450;28;20445;-68
2023/03/02 09:55:59;;;;;;;19.30;11.93;;;1.60;99.90;;;;;;5011172;28;20481;-69
2023/03/02 09:58:34;;;;;;;20.10;11.70;;;1.60;99.90;;;;;;5014886;28;20402;-69
2023/03/02 10:01:05;;;;;;;20.40;11.83;;;1.70;99.90;;;;;;5011139;28;21027;-69
2023/03/02 10:03:56;;;;;;;18.33;12.00;;;1.70;99.90;;;;;;5011715;28;20494;-70
2023/03/02 10:06:22;;;;;;;18.30;10.40;;;1.60;99.90;;;;;;5011071;28;20469;-67
2023/03/02 10:08:49;;;;;;;24.70;13.03;;;1.70;99.90;;;;;;5011705;28;20404;-69
2023/03/02 10:11:49;;;;;;;16.50;11.90;;;1.90;99.90;;;;;;5012212;28;20184;-68
2023/03/02 10:14:23;;;;;;;16.10;9.80;;;1.70;99.90;;;;;;5016819;28;20496;-70
2023/03/02 10:17:13;;;;;;;18.80;10.93;;;1.70;99.90;;;;;;5011490;28;20406;-70
2023/03/02 10:19:45;;;;;;;23.13;12.63;;;1.80;99.90;;;;;;5005173;28;20455;-68
2023/03/02 10:22:25;;;;;;;18.67;10.80;;;1.60;99.90;;;;;;5011432;28;20423;-69
2023/03/02 10:25:10;;;;;;;20.80;13.00;;;1.80;99.90;;;;;;5011119;28;20411;-70
2023/03/02 10:27:40;;;;;;;22.30;11.33;;;1.60;99.90;;;;;;5011123;28;20400;-69
2023/03/02 10:30:26;;;;;;;16.60;11.40;;;1.70;99.90;;;;;;5011044;28;20439;-68
2023/03/02 10:32:54;;;;;;;18.77;10.90;;;1.90;99.90;;;;;;5017415;28;20932;-68
2023/03/02 10:35:22;;;;;;;24.27;11.07;;;1.80;99.90;;;;;;5012103;28;20458;-69
2023/03/02 10:37:53;;;;;;;20.87;11.23;;;1.90;99.90;;;;;;5020470;28;20406;-68
2023/03/02 10:40:33;;;;;;;15.30;10.53;;;1.90;99.90;;;;;;5013610;28;20435;-68
2023/03/02 10:42:59;;;;;;;21.27;12.60;;;1.90;99.90;;;;;;5014708;28;20407;-69
2023/03/02 10:45:30;;;;;;;17.93;12.30;;;1.90;99.90;;;;;;5011050;28;20754;-68
2023/03/02 10:48:11;;;;;;;16.70;10.17;;;2.00;99.90;;;;;;5015367;28;20471;-68
2023/03/02 10:50:37;;;;;;;23.20;11.63;;;2.20;99.90;;;;;;5004199;28;20462;-69
2023/03/02 10:53:07;;;;;;;15.40;10.60;;;2.20;99.90;;;;;;5012851;28;20925;-68
2023/03/02 10:55:33;;;;;;;15.60;10.27;;;2.10;99.90;;;;;;5010663;28;20666;-68
2023/03/02 10:58:05;;;;;;;20.20;13.20;;;2.30;99.90;;;;;;5010619;28;20905;-68
2023/03/02 11:00:32;;;;;;;16.90;10.40;;;2.40;99.90;;;;;;5005930;28;20446;-68
2023/03/02 11:03:04;;;;;;;18.07;10.77;;;2.30;99.90;;;;;;5036074;22;20592;-62
2023/03/02 11:05:43;;;;;;;22.30;12.07;;;2.30;99.90;;;;;;5010543;28;20403;-63
2023/03/02 11:08:15;;;;;;;14.30;10.37;;;2.50;99.90;;;;;;5015080;28;20520;-62
2023/03/02 11:10:56;;;;;;;15.13;9.30;;;2.40;99.90;;;;;;5013780;28;20510;-62
2023/03/02 11:13:29;;;;;;;18.80;10.27;;;2.40;99.90;;;;;;5020663;28;20935;-62
2023/03/02 11:15:59;;;;;;;21.67;10.40;;;2.60;99.90;;;;;;5014598;28;20493;-63
2023/03/02 11:18:36;;;;;;;14.60;9.90;;;2.70;99.90;;;;;;5013611;28;20838;-63
2023/03/02 11:21:10;;;;;;;13.97;10.43;;;2.70;99.90;;;;;;5013487;28;20407;-60
2023/03/02 11:23:55;;;;;;;14.90;9.40;;;2.80;99.90;;;;;;5006248;28;20438;-62
2023/03/02 11:26:33;;;;;;;17.80;10.57;;;2.80;99.90;;;;;;5015058;28;20402;-62
2023/03/02 11:29:18;;;;;;;21.00;11.27;;;2.50;99.90;;;;;;5013347;28;20940;-62
2023/03/02 11:31:54;;;;;;;17.43;11.57;;;2.70;99.90;;;;;;5013335;28;20873;-62
2023/03/02 11:34:26;;;;;;;15.47;9.07;;;2.90;99.90;;;;;;5013110;28;20470;-64
2023/03/02 11:37:05;;;;;;;17.37;10.30;;;3.30;99.90;;;;;;5018217;28;20414;-63
2023/03/02 11:39:48;;;;;;;15.27;11.57;;;3.20;99.90;;;;;;5011727;28;20435;-61
2023/03/02 11:42:23;;;;;;;21.97;12.03;;;3.40;99.90;;;;;;5011861;28;20450;-61
2023/03/02 11:44:49;;;;;;;17.20;12.20;;;3.70;99.90;;;;;;5009446;28;20410;-62
2023/03/02 11:47:16;;;;;;;15.73;11.70;;;3.60;99.90;;;;;;5016802;28;20414;-61
2023/03/02 11:49:46;;;;;;;15.27;10.60;;;3.50;99.90;;;;;;5007021;28;20182;-62
2023/03/02 11:52:25;;;;;;;16.20;10.60;;;3.40;99.90;;;;;;5012785;28;20509;-62
2023/03/02 11:54:59;;;;;;;14.60;10.83;;;3.70;99.90;;;;;;5007669;28;20791;-58
2023/03/02 11:57:38;;;;;;;16.73;10.50;;;3.80;99.90;;;;;;5012802;28;20776;-61
2023/03/02 12:00:14;;;;;;;18.00;10.80;;;3.90;99.90;;;;;;5017207;28;20406;-62
2023/03/02 12:02:40;;;;;;;18.33;12.50;;;3.80;99.90;;;;;;5015097;28;20455;-61
2023/03/02 12:05:27;;;;;;;22.20;11.60;;;3.60;99.90;;;;;;5018869;28;20466;-59
2023/03/02 12:08:05;;;;;;;18.73;11.20;;;3.30;99.90;;;;;;5014593;28;20654;-61
2023/03/02 12:10:33;;;;;;;12.90;10.20;;;3.20;99.90;;;;;;5004553;28;20882;-60
2023/03/02 12:13:11;;;;;;;17.53;8.73;;;3.30;99.90;;;;;;5012571;28;20427;-61
2023/03/02 12:15:44;;;;;;;16.13;11.13;;;3.30;99.90;;;;;;5012541;28;20497;-62
2023/03/02 12:18:30;;;;;;;17.40;10.20;;;3.20;99.90;;;;;;5011910;28;20427;-59
2023/03/02 12:21:02;;;;;;;16.70;10.73;;;3.40;99.90;;;;;;5012471;28;20777;-61
2023/03/02 12:23:29;;;;;;;13.17;9.87;;;3.40;99.90;;;;;;5003622;28;20438;-60
2023/03/02 12:26:08;;;;;;;14.90;9.43;;;3.30;99.90;;;;;;5012078;28;20423;-62
2023/03/02 12:28:37;;;;;;;15.90;10.77;;;3.40;99.90;;;;;;5005306;28;20434;-60
2023/03/02 12:31:10;;;;;;;17.67;9.67;;;3.60;99.90;;;;;;5011953;28;20422;-64
2023/03/02 12:33:45;;;;;;;17.83;11.90;;;3.50;99.90;;;;;;5011969;28;20666;-64
2023/03/02 12:36:15;;;;;;;21.03;10.67;;;3.40;99.90;;;;;;5011831;28;20407;-62
2023/03/02 12:38:46;;;;;;;15.00;9.70;;;3.30;99.90;;;;;;5011876;28;20498;-63
2023/03/02 12:41:31;;;;;;;17.23;10.60;;;3.40;99.90;;;;;;5021299;28;20817;-62
2023/03/02 12:44:15;;;;;;;14.30;9.53;;;3.50;99.90;;;;;;5011683;28;20514;-63
2023/03/02 12:46:45;;;;;;;20.27;10.37;;;3.50;99.90;;;;;;5005432;28;20447;-62
2023/03/02 12:49:44;;;;;;;11.50;9.30;;;3.50;99.90;;;;;;5011670;28;20426;-62